sensor_id;sensor_type;location;lat;lon;timestamp;pressure;altitude;pressure_sealevel;temperature;humidity
71903;BME280;59778;50.310;18.780;2023-04-27T00:01:36;98913.88;;;4.99;79.67
71903;BME280;59778;50.310;18.780;2023-04-27T00:16:58;98909.78;;;4.95;79.28
71903;BME280;59778;50.310;18.780;2023-04-27T00:32:19;98906.69;;;4.82;80.42
71903;BME280;59778;50.310;18.780;2023-04-27T00:47:41;98910.09;;;4.66;81.30
71903;BME280;59778;50.310;18.780;2023-04-27T01:03:02;98913.75;;;4.47;82.07
71903;BME280;59778;50.310;18.780;2023-04-27T01:18:24;98910.25;;;4.19;85.08
71903;BME280;59778;50.310;18.780;2023-04-27T01:33:45;98926.75;;;4.34;84.50
71903;BME280;59778;50.310;18.780;2023-04-27T01:49:07;98929.50;;;4.42;83.71
71903;BME280;59778;50.310;18.780;2023-04-27T02:04:28;98938.03;;;4.38;84.57
71903;BME280;59778;50.310;18.780;2023-04-27T02:19:49;98924.94;;;4.43;84.31
71903;BME280;59778;50.310;18.780;2023-04-27T02:35:11;98925.50;;;4.28;84.72
71903;BME280;59778;50.310;18.780;2023-04-27T02:50:32;98928.09;;;4.20;85.30
71903;BME280;59778;50.310;18.780;2023-04-27T03:05:53;98930.63;;;4.22;84.37
71903;BME280;59778;50.310;18.780;2023-04-27T03:21:14;98947.09;;;3.45;87.17
71903;BME280;59778;50.310;18.780;2023-04-27T03:36:37;98957.53;;;3.48;85.92
71903;BME280;59778;50.310;18.780;2023-04-27T03:51:58;98957.44;;;3.40;88.01
71903;BME280;59778;50.310;18.780;2023-04-27T04:07:20;98983.50;;;3.67;87.03
71903;BME280;59778;50.310;18.780;2023-04-27T04:22:42;98981.44;;;3.88;89.05
71903;BME280;59778;50.310;18.780;2023-04-27T04:38:04;98994.31;;;3.85;89.36
71903;BME280;59778;50.310;18.780;2023-04-27T04:53:25;99006.91;;;3.84;90.33
71903;BME280;59778;50.310;18.780;2023-04-27T05:08:47;99022.06;;;4.12;89.84
71903;BME280;59778;50.310;18.780;2023-04-27T05:24:08;99040.41;;;4.71;87.52
71903;BME280;59778;50.310;18.780;2023-04-27T05:39:30;99035.66;;;5.36;83.17
71903;BME280;59778;50.310;18.780;2023-04-27T05:54:51;99048.34;;;5.87;72.01
71903;BME280;59778;50.310;18.780;2023-04-27T06:10:13;99062.22;;;6.26;69.74
71903;BME280;59778;50.310;18.780;2023-04-27T06:25:34;99057.69;;;6.69;68.38
71903;BME280;59778;50.310;18.780;2023-04-27T06:40:57;99066.28;;;7.54;64.89
71903;BME280;59778;50.310;18.780;2023-04-27T06:56:19;99072.69;;;7.94;64.05
71903;BME280;59778;50.310;18.780;2023-04-27T07:11:41;99064.94;;;8.54;62.08
71903;BME280;59778;50.310;18.780;2023-04-27T07:27:02;99060.84;;;8.97;55.32
71903;BME280;59778;50.310;18.780;2023-04-27T07:42:24;99048.94;;;9.29;53.93
71903;BME280;59778;50.310;18.780;2023-04-27T07:57:45;99053.56;;;8.97;50.92
71903;BME280;59778;50.310;18.780;2023-04-27T08:13:06;99063.66;;;9.34;50.61
71903;BME280;59778;50.310;18.780;2023-04-27T08:28:29;99057.31;;;10.02;46.92
71903;BME280;59778;50.310;18.780;2023-04-27T08:43:51;99063.78;;;10.01;49.33
71903;BME280;59778;50.310;18.780;2023-04-27T08:59:14;99087.91;;;8.66;50.45
71903;BME280;59778;50.310;18.780;2023-04-27T09:14:35;99066.97;;;9.67;50.64
71903;BME280;59778;50.310;18.780;2023-04-27T09:29:57;99057.59;;;10.30;45.02
71903;BME280;59778;50.310;18.780;2023-04-27T09:45:18;99059.16;;;10.39;42.51
71903;BME280;59778;50.310;18.780;2023-04-27T10:16:25;99065.72;;;9.55;46.56
71903;BME280;59778;50.310;18.780;2023-04-27T10:31:47;99067.59;;;10.15;43.50
71903;BME280;59778;50.310;18.780;2023-04-27T10:47:13;99059.28;;;10.31;44.52
71903;BME280;59778;50.310;18.780;2023-04-27T11:02:35;99077.44;;;10.30;46.71
71903;BME280;59778;50.310;18.780;2023-04-27T11:18:04;99082.47;;;9.96;46.68
71903;BME280;59778;50.310;18.780;2023-04-27T11:33:26;99082.09;;;10.36;48.12
71903;BME280;59778;50.310;18.780;2023-04-27T11:48:48;99073.91;;;10.95;44.07
71903;BME280;59778;50.310;18.780;2023-04-27T12:04:09;99081.81;;;10.75;40.28
71903;BME280;59778;50.310;18.780;2023-04-27T12:19:30;99078.69;;;11.08;43.18
71903;BME280;59778;50.310;18.780;2023-04-27T12:34:52;99068.59;;;11.80;42.10
71903;BME280;59778;50.310;18.780;2023-04-27T12:50:13;99067.34;;;11.82;42.51
71903;BME280;59778;50.310;18.780;2023-04-27T13:05:35;99069.88;;;11.06;41.59
71903;BME280;59778;50.310;18.780;2023-04-27T13:20:57;99069.91;;;10.76;42.36
71903;BME280;59778;50.310;18.780;2023-04-27T13:36:18;99067.69;;;10.65;43.23
71903;BME280;59778;50.310;18.780;2023-04-27T13:51:39;99074.31;;;10.92;44.01
71903;BME280;59778;50.310;18.780;2023-04-27T14:07:01;99073.56;;;11.98;40.92
71903;BME280;59778;50.310;18.780;2023-04-27T14:22:22;99067.81;;;12.42;40.85
71903;BME280;59778;50.310;18.780;2023-04-27T14:37:44;99085.53;;;11.40;42.22
71903;BME280;59778;50.310;18.780;2023-04-27T14:53:05;99092.41;;;10.85;46.15
71903;BME280;59778;50.310;18.780;2023-04-27T15:08:26;99093.53;;;10.61;45.38
71903;BME280;59778;50.310;18.780;2023-04-27T15:23:48;99101.19;;;10.87;44.88
71903;BME280;59778;50.310;18.780;2023-04-27T15:39:09;99097.44;;;10.59;45.34
71903;BME280;59778;50.310;18.780;2023-04-27T15:54:30;99107.09;;;10.32;47.80
71903;BME280;59778;50.310;18.780;2023-04-27T16:09:52;99104.03;;;10.50;48.23
71903;BME280;59778;50.310;18.780;2023-04-27T16:25:13;99105.88;;;10.78;48.29
71903;BME280;59778;50.310;18.780;2023-04-27T16:40:34;99108.06;;;10.68;47.57
71903;BME280;59778;50.310;18.780;2023-04-27T16:55:58;99110.38;;;10.57;48.08
71903;BME280;59778;50.310;18.780;2023-04-27T17:11:21;99117.44;;;10.66;48.58
71903;BME280;59778;50.310;18.780;2023-04-27T17:26:42;99129.66;;;10.47;49.37
71903;BME280;59778;50.310;18.780;2023-04-27T17:42:04;99119.78;;;10.17;52.37
71903;BME280;59778;50.310;18.780;2023-04-27T17:57:26;99133.59;;;9.39;50.32
71903;BME280;59778;50.310;18.780;2023-04-27T18:12:48;99137.41;;;9.22;51.58
71903;BME280;59778;50.310;18.780;2023-04-27T18:28:09;99157.78;;;8.71;55.51
71903;BME280;59778;50.310;18.780;2023-04-27T18:43:33;99168.84;;;8.21;59.76
71903;BME280;59778;50.310;18.780;2023-04-27T18:58:55;99168.16;;;7.70;62.48
71903;BME280;59778;50.310;18.780;2023-04-27T19:14:17;99175.09;;;6.73;62.86
71903;BME280;59778;50.310;18.780;2023-04-27T19:29:53;99185.97;;;6.55;66.91
71903;BME280;59778;50.310;18.780;2023-04-27T19:45:15;99193.25;;;6.11;68.53
71903;BME280;59778;50.310;18.780;2023-04-27T20:00:37;99195.25;;;6.09;68.15
71903;BME280;59778;50.310;18.780;2023-04-27T20:15:59;99191.03;;;6.06;69.63
71903;BME280;59778;50.310;18.780;2023-04-27T20:31:20;99210.72;;;5.72;71.10
71903;BME280;59778;50.310;18.780;2023-04-27T20:46:41;99208.94;;;5.45;72.62
71903;BME280;59778;50.310;18.780;2023-04-27T21:02:03;99201.59;;;5.19;72.15
71903;BME280;59778;50.310;18.780;2023-04-27T21:17:24;99212.91;;;4.96;73.34
71903;BME280;59778;50.310;18.780;2023-04-27T21:32:46;99205.13;;;4.56;75.74
71903;BME280;59778;50.310;18.780;2023-04-27T21:48:08;99210.91;;;4.14;76.62
71903;BME280;59778;50.310;18.780;2023-04-27T22:03:29;99217.13;;;3.96;78.81
71903;BME280;59778;50.310;18.780;2023-04-27T22:18:50;99211.63;;;3.78;79.88
71903;BME280;59778;50.310;18.780;2023-04-27T22:34:12;99218.44;;;3.63;80.71
71903;BME280;59778;50.310;18.780;2023-04-27T22:49:34;99213.31;;;3.60;82.02
71903;BME280;59778;50.310;18.780;2023-04-27T23:04:56;99210.06;;;3.56;83.20
71903;BME280;59778;50.310;18.780;2023-04-27T23:20:18;99215.72;;;3.72;84.47
71903;BME280;59778;50.310;18.780;2023-04-27T23:35:40;99216.44;;;3.74;88.11
71903;BME280;59778;50.310;18.780;2023-04-27T23:51:02;99209.66;;;3.90;86.19
